sensor_id;sensor_type;location;lat;lon;timestamp;pressure;altitude;pressure_sealevel;temperature
40047;BMP280;31510;48.122;11.576;2023-02-01T00:01:39;96170.03;;;4.35
40047;BMP280;31510;48.122;11.576;2023-02-01T00:04:05;96162.84;;;4.35
40047;BMP280;31510;48.122;11.576;2023-02-01T00:06:30;96159.81;;;4.36
40047;BMP280;31510;48.122;11.576;2023-02-01T00:08:56;96156.41;;;4.39
40047;BMP280;31510;48.122;11.576;2023-02-01T00:11:21;96158.28;;;4.42
40047;BMP280;31510;48.122;11.576;2023-02-01T00:13:47;96157.88;;;4.44
40047;BMP280;31510;48.122;11.576;2023-02-01T00:16:17;96151.84;;;4.47
40047;BMP280;31510;48.122;11.576;2023-02-01T00:18:50;96152.97;;;4.46
40047;BMP280;31510;48.122;11.576;2023-02-01T00:21:18;96161.66;;;4.46
40047;BMP280;31510;48.122;11.576;2023-02-01T00:23:43;96152.56;;;4.47
40047;BMP280;31510;48.122;11.576;2023-02-01T00:26:19;96154.09;;;4.48
40047;BMP280;31510;48.122;11.576;2023-02-01T00:28:45;96148.81;;;4.48
40047;BMP280;31510;48.122;11.576;2023-02-01T00:31:10;96146.16;;;4.52
40047;BMP280;31510;48.122;11.576;2023-02-01T00:33:36;96150.28;;;4.53
40047;BMP280;31510;48.122;11.576;2023-02-01T00:36:04;96147.63;;;4.53
40047;BMP280;31510;48.122;11.576;2023-02-01T00:38:32;96132.19;;;4.55
40047;BMP280;31510;48.122;11.576;2023-02-01T00:41:09;96148.41;;;4.53
40047;BMP280;31510;48.122;11.576;2023-02-01T00:43:35;96141.59;;;4.52
40047;BMP280;31510;48.122;11.576;2023-02-01T00:46:00;96154.84;;;4.49
40047;BMP280;31510;48.122;11.576;2023-02-01T00:48:26;96143.19;;;4.43
40047;BMP280;31510;48.122;11.576;2023-02-01T00:50:51;96149.25;;;4.36
40047;BMP280;31510;48.122;11.576;2023-02-01T00:53:17;96144.38;;;4.32
40047;BMP280;31510;48.122;11.576;2023-02-01T00:55:46;96145.19;;;4.25
40047;BMP280;31510;48.122;11.576;2023-02-01T00:58:11;96147.84;;;4.22
40047;BMP280;31510;48.122;11.576;2023-02-01T01:00:37;96143.75;;;4.14
40047;BMP280;31510;48.122;11.576;2023-02-01T01:03:04;96124.53;;;4.10
40047;BMP280;31510;48.122;11.576;2023-02-01T01:05:44;96138.13;;;4.05
40047;BMP280;31510;48.122;11.576;2023-02-01T01:08:09;96134.03;;;4.00
40047;BMP280;31510;48.122;11.576;2023-02-01T01:10:34;96132.16;;;3.94
40047;BMP280;31510;48.122;11.576;2023-02-01T01:13:00;96129.16;;;3.92
40047;BMP280;31510;48.122;11.576;2023-02-01T01:15:25;96129.91;;;3.96
40047;BMP280;31510;48.122;11.576;2023-02-01T01:17:50;96122.69;;;4.00
40047;BMP280;31510;48.122;11.576;2023-02-01T01:20:15;96124.97;;;3.98
40047;BMP280;31510;48.122;11.576;2023-02-01T01:22:41;96125.78;;;3.95
40047;BMP280;31510;48.122;11.576;2023-02-01T01:25:07;96120.88;;;3.94
40047;BMP280;31510;48.122;11.576;2023-02-01T01:27:32;96108.81;;;3.93
40047;BMP280;31510;48.122;11.576;2023-02-01T01:29:57;96115.63;;;3.90
40047;BMP280;31510;48.122;11.576;2023-02-01T01:32:22;96123.16;;;3.92
40047;BMP280;31510;48.122;11.576;2023-02-01T01:34:48;96122.75;;;3.93
40047;BMP280;31510;48.122;11.576;2023-02-01T01:37:13;96123.88;;;3.92
40047;BMP280;31510;48.122;11.576;2023-02-01T01:39:38;96112.56;;;3.95
40047;BMP280;31510;48.122;11.576;2023-02-01T01:42:04;96118.94;;;4.01
40047;BMP280;31510;48.122;11.576;2023-02-01T01:47:19;96116.00;;;3.89
40047;BMP280;31510;48.122;11.576;2023-02-01T01:49:44;96106.59;;;3.81
40047;BMP280;31510;48.122;11.576;2023-02-01T01:52:10;96096.47;;;3.76
40047;BMP280;31510;48.122;11.576;2023-02-01T01:54:42;96094.59;;;3.73
40047;BMP280;31510;48.122;11.576;2023-02-01T01:57:14;96092.31;;;3.75
40047;BMP280;31510;48.122;11.576;2023-02-01T01:59:43;96088.56;;;3.76
40047;BMP280;31510;48.122;11.576;2023-02-01T02:02:11;96075.38;;;3.72
40047;BMP280;31510;48.122;11.576;2023-02-01T02:04:37;96082.91;;;3.70
40047;BMP280;31510;48.122;11.576;2023-02-01T02:07:05;96074.25;;;3.66
40047;BMP280;31510;48.122;11.576;2023-02-01T02:09:32;96073.16;;;3.64
40047;BMP280;31510;48.122;11.576;2023-02-01T02:11:58;96072.41;;;3.63
40047;BMP280;31510;48.122;11.576;2023-02-01T02:14:24;96069.78;;;3.60
40047;BMP280;31510;48.122;11.576;2023-02-01T02:28:19;96089.44;;;3.45
40047;BMP280;31510;48.122;11.576;2023-02-01T02:39:00;96102.22;;;3.54
40047;BMP280;31510;48.122;11.576;2023-02-01T02:44:49;96093.88;;;3.65
40047;BMP280;31510;48.122;11.576;2023-02-01T02:47:47;96085.94;;;3.69
40047;BMP280;31510;48.122;11.576;2023-02-01T02:53:27;96079.88;;;3.75
40047;BMP280;31510;48.122;11.576;2023-02-01T02:56:12;96080.66;;;3.76
40047;BMP280;31510;48.122;11.576;2023-02-01T02:58:58;96077.22;;;3.75
40047;BMP280;31510;48.122;11.576;2023-02-01T03:01:43;96072.34;;;3.74
40047;BMP280;31510;48.122;11.576;2023-02-01T03:04:27;96077.63;;;3.74
40047;BMP280;31510;48.122;11.576;2023-02-01T03:06:53;96073.47;;;3.76
40047;BMP280;31510;48.122;11.576;2023-02-01T03:09:26;96060.31;;;3.73
40047;BMP280;31510;48.122;11.576;2023-02-01T03:11:56;96057.31;;;3.71
40047;BMP280;31510;48.122;11.576;2023-02-01T03:14:45;96069.72;;;3.70
40047;BMP280;31510;48.122;11.576;2023-02-01T03:17:14;96062.94;;;3.73
40047;BMP280;31510;48.122;11.576;2023-02-01T03:19:43;96047.50;;;3.71
40047;BMP280;31510;48.122;11.576;2023-02-01T03:22:17;96055.75;;;3.77
40047;BMP280;31510;48.122;11.576;2023-02-01T03:24:47;96058.75;;;3.79
40047;BMP280;31510;48.122;11.576;2023-02-01T03:27:21;96037.28;;;3.80
40047;BMP280;31510;48.122;11.576;2023-02-01T03:32:15;96059.44;;;3.86
40047;BMP280;31510;48.122;11.576;2023-02-01T03:34:41;96054.56;;;3.88
40047;BMP280;31510;48.122;11.576;2023-02-01T03:37:10;96049.28;;;3.88
40047;BMP280;31510;48.122;11.576;2023-02-01T03:42:13;96056.41;;;3.91
40047;BMP280;31510;48.122;11.576;2023-02-01T03:44:50;96062.84;;;3.90
40047;BMP280;31510;48.122;11.576;2023-02-01T03:47:26;96054.53;;;3.92
40047;BMP280;31510;48.122;11.576;2023-02-01T03:49:58;96042.47;;;3.91
40047;BMP280;31510;48.122;11.576;2023-02-01T03:52:47;96042.84;;;3.93
40047;BMP280;31510;48.122;11.576;2023-02-01T03:55:15;96039.81;;;3.97
40047;BMP280;31510;48.122;11.576;2023-02-01T03:57:45;96044.69;;;3.99
40047;BMP280;31510;48.122;11.576;2023-02-01T04:00:18;96040.16;;;3.99
40047;BMP280;31510;48.122;11.576;2023-02-01T04:02:45;96044.69;;;4.02
40047;BMP280;31510;48.122;11.576;2023-02-01T04:05:10;96037.88;;;4.01
40047;BMP280;31510;48.122;11.576;2023-02-01T04:07:36;96035.25;;;4.01
40047;BMP280;31510;48.122;11.576;2023-02-01T04:10:02;96030.34;;;4.00
40047;BMP280;31510;48.122;11.576;2023-02-01T04:12:28;96040.13;;;4.03
40047;BMP280;31510;48.122;11.576;2023-02-01T04:14:53;96043.13;;;4.05
40047;BMP280;31510;48.122;11.576;2023-02-01T04:17:19;96050.28;;;4.08
40047;BMP280;31510;48.122;11.576;2023-02-01T04:19:44;96042.72;;;4.10
40047;BMP280;31510;48.122;11.576;2023-02-01T04:22:09;96045.38;;;4.06
40047;BMP280;31510;48.122;11.576;2023-02-01T04:24:34;96057.06;;;4.09
40047;BMP280;31510;48.122;11.576;2023-02-01T04:27:01;96038.56;;;4.09
40047;BMP280;31510;48.122;11.576;2023-02-01T04:29:27;96027.63;;;4.10
40047;BMP280;31510;48.122;11.576;2023-02-01T04:31:53;96033.28;;;4.09
40047;BMP280;31510;48.122;11.576;2023-02-01T04:34:18;96033.31;;;4.05
40047;BMP280;31510;48.122;11.576;2023-02-01T04:36:43;96019.00;;;4.06
40047;BMP280;31510;48.122;11.576;2023-02-01T04:39:09;96035.94;;;4.09
40047;BMP280;31510;48.122;11.576;2023-02-01T04:41:34;96018.25;;;4.06
40047;BMP280;31510;48.122;11.576;2023-02-01T04:44:00;96038.22;;;4.07
40047;BMP280;31510;48.122;11.576;2023-02-01T04:46:25;96037.81;;;4.12
40047;BMP280;31510;48.122;11.576;2023-02-01T04:48:51;96051.38;;;4.14
40047;BMP280;31510;48.122;11.576;2023-02-01T04:51:16;96029.88;;;4.12
40047;BMP280;31510;48.122;11.576;2023-02-01T04:53:43;96039.72;;;4.11
40047;BMP280;31510;48.122;11.576;2023-02-01T04:56:08;96037.44;;;4.13
40047;BMP280;31510;48.122;11.576;2023-02-01T04:58:34;96029.13;;;4.15
40047;BMP280;31510;48.122;11.576;2023-02-01T05:01:02;96034.78;;;4.13
40047;BMP280;31510;48.122;11.576;2023-02-01T05:03:29;96035.16;;;4.12
40047;BMP280;31510;48.122;11.576;2023-02-01T05:05:55;96027.63;;;4.14
40047;BMP280;31510;48.122;11.576;2023-02-01T05:08:20;96045.34;;;4.13
40047;BMP280;31510;48.122;11.576;2023-02-01T05:10:48;96036.69;;;4.13
40047;BMP280;31510;48.122;11.576;2023-02-01T05:13:13;96029.88;;;4.12
40047;BMP280;31510;48.122;11.576;2023-02-01T05:15:57;96028.00;;;4.12
40047;BMP280;31510;48.122;11.576;2023-02-01T05:18:22;96035.53;;;4.14
40047;BMP280;31510;48.122;11.576;2023-02-01T05:20:47;96046.09;;;4.14
40047;BMP280;31510;48.122;11.576;2023-02-01T05:23:12;96040.03;;;4.17
40047;BMP280;31510;48.122;11.576;2023-02-01T05:25:38;96047.97;;;4.17
40047;BMP280;31510;48.122;11.576;2023-02-01T05:28:03;96047.97;;;4.13
40047;BMP280;31510;48.122;11.576;2023-02-01T05:30:28;96046.09;;;4.10
40047;BMP280;31510;48.122;11.576;2023-02-01T05:32:54;96064.59;;;4.10
40047;BMP280;31510;48.122;11.576;2023-02-01T05:35:20;96054.81;;;4.11
40047;BMP280;31510;48.122;11.576;2023-02-01T05:37:45;96049.53;;;4.11
40047;BMP280;31510;48.122;11.576;2023-02-01T05:40:11;96054.81;;;4.11
40047;BMP280;31510;48.122;11.576;2023-02-01T05:42:36;96050.66;;;4.10
40047;BMP280;31510;48.122;11.576;2023-02-01T05:45:01;96048.38;;;4.08
40047;BMP280;31510;48.122;11.576;2023-02-01T05:47:27;96041.97;;;4.09
40047;BMP280;31510;48.122;11.576;2023-02-01T05:49:52;96041.22;;;4.09
40047;BMP280;31510;48.122;11.576;2023-02-01T05:52:17;96057.44;;;4.11
40047;BMP280;31510;48.122;11.576;2023-02-01T05:54:47;96051.38;;;4.14
40047;BMP280;31510;48.122;11.576;2023-02-01T05:57:13;96038.91;;;4.14
40047;BMP280;31510;48.122;11.576;2023-02-01T05:59:38;96041.59;;;4.11
40047;BMP280;31510;48.122;11.576;2023-02-01T06:02:07;96038.59;;;4.05
40047;BMP280;31510;48.122;11.576;2023-02-01T06:04:32;96045.78;;;4.05
40047;BMP280;31510;48.122;11.576;2023-02-01T06:06:57;96045.75;;;4.08
40047;BMP280;31510;48.122;11.576;2023-02-01T06:09:23;96024.25;;;4.10
40047;BMP280;31510;48.122;11.576;2023-02-01T06:11:48;96021.63;;;4.10
40047;BMP280;31510;48.122;11.576;2023-02-01T06:14:13;96034.06;;;4.09
40047;BMP280;31510;48.122;11.576;2023-02-01T06:16:39;96026.91;;;4.10
40047;BMP280;31510;48.122;11.576;2023-02-01T06:19:04;96032.16;;;4.10
40047;BMP280;31510;48.122;11.576;2023-02-01T06:21:29;96023.88;;;4.11
40047;BMP280;31510;48.122;11.576;2023-02-01T06:23:54;96033.28;;;4.12
40047;BMP280;31510;48.122;11.576;2023-02-01T06:26:22;96040.81;;;4.14
40047;BMP280;31510;48.122;11.576;2023-02-01T06:28:47;96047.59;;;4.15
40047;BMP280;31510;48.122;11.576;2023-02-01T06:31:13;96044.56;;;4.20
40047;BMP280;31510;48.122;11.576;2023-02-01T06:33:38;96044.91;;;4.22
40047;BMP280;31510;48.122;11.576;2023-02-01T06:36:06;96035.47;;;4.21
40047;BMP280;31510;48.122;11.576;2023-02-01T06:38:32;96033.59;;;4.21
40047;BMP280;31510;48.122;11.576;2023-02-01T06:41:00;96030.19;;;4.21
40047;BMP280;31510;48.122;11.576;2023-02-01T06:43:26;96027.19;;;4.19
40047;BMP280;31510;48.122;11.576;2023-02-01T06:45:52;96039.28;;;4.20
40047;BMP280;31510;48.122;11.576;2023-02-01T06:48:18;96024.56;;;4.19
40047;BMP280;31510;48.122;11.576;2023-02-01T06:50:44;96027.19;;;4.19
40047;BMP280;31510;48.122;11.576;2023-02-01T06:53:11;96030.19;;;4.21
40047;BMP280;31510;48.122;11.576;2023-02-01T06:55:36;96030.94;;;4.21
40047;BMP280;31510;48.122;11.576;2023-02-01T06:58:02;96024.16;;;4.24
40047;BMP280;31510;48.122;11.576;2023-02-01T07:00:28;96024.16;;;4.24
40047;BMP280;31510;48.122;11.576;2023-02-01T07:02:54;96035.06;;;4.26
40047;BMP280;31510;48.122;11.576;2023-02-01T07:05:20;96024.50;;;4.26
40047;BMP280;31510;48.122;11.576;2023-02-01T07:07:46;96021.47;;;4.27
40047;BMP280;31510;48.122;11.576;2023-02-01T07:10:11;96027.13;;;4.29
40047;BMP280;31510;48.122;11.576;2023-02-01T07:12:36;96027.13;;;4.29
40047;BMP280;31510;48.122;11.576;2023-02-01T07:15:03;96017.31;;;4.30
40047;BMP280;31510;48.122;11.576;2023-02-01T07:17:28;96022.19;;;4.31
40047;BMP280;31510;48.122;11.576;2023-02-01T07:19:57;96018.03;;;4.30
40047;BMP280;31510;48.122;11.576;2023-02-01T07:22:24;96005.63;;;4.31
40047;BMP280;31510;48.122;11.576;2023-02-01T07:24:50;96021.47;;;4.31
40047;BMP280;31510;48.122;11.576;2023-02-01T07:27:15;95998.81;;;4.30
40047;BMP280;31510;48.122;11.576;2023-02-01T07:29:40;96001.84;;;4.28
40047;BMP280;31510;48.122;11.576;2023-02-01T07:32:06;96000.34;;;4.31
40047;BMP280;31510;48.122;11.576;2023-02-01T07:34:31;95992.03;;;4.32
40047;BMP280;31510;48.122;11.576;2023-02-01T07:36:56;95994.69;;;4.32
40047;BMP280;31510;48.122;11.576;2023-02-01T07:39:22;95998.78;;;4.33
40047;BMP280;31510;48.122;11.576;2023-02-01T07:41:47;95983.66;;;4.37
40047;BMP280;31510;48.122;11.576;2023-02-01T07:44:12;95997.63;;;4.37
40047;BMP280;31510;48.122;11.576;2023-02-01T07:46:38;95993.09;;;4.38
40047;BMP280;31510;48.122;11.576;2023-02-01T07:49:04;95982.16;;;4.39
40047;BMP280;31510;48.122;11.576;2023-02-01T07:51:30;95994.63;;;4.39
40047;BMP280;31510;48.122;11.576;2023-02-01T07:53:55;96001.72;;;4.42
40047;BMP280;31510;48.122;11.576;2023-02-01T07:56:20;95984.03;;;4.42
40047;BMP280;31510;48.122;11.576;2023-02-01T07:58:52;96012.25;;;4.45
40047;BMP280;31510;48.122;11.576;2023-02-01T08:01:20;96000.94;;;4.48
40047;BMP280;31510;48.122;11.576;2023-02-01T08:03:50;96011.84;;;4.50
40047;BMP280;31510;48.122;11.576;2023-02-01T08:06:16;96008.81;;;4.52
40047;BMP280;31510;48.122;11.576;2023-02-01T08:08:41;96022.03;;;4.52
40047;BMP280;31510;48.122;11.576;2023-02-01T08:11:10;96034.03;;;4.56
40047;BMP280;31510;48.122;11.576;2023-02-01T08:13:35;96025.34;;;4.59
40047;BMP280;31510;48.122;11.576;2023-02-01T08:16:03;96039.25;;;4.63
40047;BMP280;31510;48.122;11.576;2023-02-01T08:18:29;96047.94;;;4.67
40047;BMP280;31510;48.122;11.576;2023-02-01T08:20:55;96044.13;;;4.68
40047;BMP280;31510;48.122;11.576;2023-02-01T08:23:21;96045.25;;;4.71
40047;BMP280;31510;48.122;11.576;2023-02-01T08:25:47;96036.16;;;4.72
40047;BMP280;31510;48.122;11.576;2023-02-01T08:28:13;96036.53;;;4.74
40047;BMP280;31510;48.122;11.576;2023-02-01T08:30:39;96037.28;;;4.74
40047;BMP280;31510;48.122;11.576;2023-02-01T08:33:08;96047.06;;;4.77
40047;BMP280;31510;48.122;11.576;2023-02-01T08:35:37;96062.91;;;4.77
40047;BMP280;31510;48.122;11.576;2023-02-01T08:38:03;96059.50;;;4.80
40047;BMP280;31510;48.122;11.576;2023-02-01T08:40:28;96059.13;;;4.81
40047;BMP280;31510;48.122;11.576;2023-02-01T08:42:54;96044.75;;;4.82
40047;BMP280;31510;48.122;11.576;2023-02-01T08:45:22;96045.09;;;4.84
40047;BMP280;31510;48.122;11.576;2023-02-01T08:47:51;96045.47;;;4.86
40047;BMP280;31510;48.122;11.576;2023-02-01T08:50:17;96056.00;;;4.90
40047;BMP280;31510;48.122;11.576;2023-02-01T08:52:43;96044.63;;;4.93
40047;BMP280;31510;48.122;11.576;2023-02-01T08:55:09;96032.13;;;4.97
40047;BMP280;31510;48.122;11.576;2023-02-01T08:57:34;96046.47;;;4.99
40047;BMP280;31510;48.122;11.576;2023-02-01T09:00:00;96060.78;;;5.02
40047;BMP280;31510;48.122;11.576;2023-02-01T09:02:26;96044.53;;;5.03
40047;BMP280;31510;48.122;11.576;2023-02-01T09:04:52;96034.31;;;5.05
40047;BMP280;31510;48.122;11.576;2023-02-01T09:07:17;96043.00;;;5.06
40047;BMP280;31510;48.122;11.576;2023-02-01T09:09:44;96048.22;;;5.09
40047;BMP280;31510;48.122;11.576;2023-02-01T09:12:09;96045.97;;;5.11
40047;BMP280;31510;48.122;11.576;2023-02-01T09:14:34;96055.00;;;5.14
40047;BMP280;31510;48.122;11.576;2023-02-01T09:17:00;96051.22;;;5.15
40047;BMP280;31510;48.122;11.576;2023-02-01T09:19:25;96048.56;;;5.15
40047;BMP280;31510;48.122;11.576;2023-02-01T09:21:50;96047.38;;;5.19
40047;BMP280;31510;48.122;11.576;2023-02-01T09:24:16;96056.44;;;5.21
40047;BMP280;31510;48.122;11.576;2023-02-01T09:26:41;96045.06;;;5.24
40047;BMP280;31510;48.122;11.576;2023-02-01T09:29:07;96051.03;;;5.28
40047;BMP280;31510;48.122;11.576;2023-02-01T09:31:36;96049.91;;;5.29
40047;BMP280;31510;48.122;11.576;2023-02-01T09:34:02;96059.31;;;5.34
40047;BMP280;31510;48.122;11.576;2023-02-01T09:36:27;96045.63;;;5.39
40047;BMP280;31510;48.122;11.576;2023-02-01T09:38:52;96039.94;;;5.40
40047;BMP280;31510;48.122;11.576;2023-02-01T09:41:32;96052.44;;;5.40
40047;BMP280;31510;48.122;11.576;2023-02-01T09:44:21;96046.75;;;5.41
40047;BMP280;31510;48.122;11.576;2023-02-01T09:46:48;96053.53;;;5.42
40047;BMP280;31510;48.122;11.576;2023-02-01T09:49:19;96038.78;;;5.45
40047;BMP280;31510;48.122;11.576;2023-02-01T09:51:49;96056.53;;;5.44
40047;BMP280;31510;48.122;11.576;2023-02-01T09:54:18;96064.84;;;5.46
40047;BMP280;31510;48.122;11.576;2023-02-01T09:56:54;96070.13;;;5.46
40047;BMP280;31510;48.122;11.576;2023-02-01T10:02:00;96073.06;;;5.52
40047;BMP280;31510;48.122;11.576;2023-02-01T10:04:27;96054.91;;;5.54
40047;BMP280;31510;48.122;11.576;2023-02-01T10:23:05;96059.78;;;5.58
40047;BMP280;31510;48.122;11.576;2023-02-01T10:25:38;96069.94;;;5.60
40047;BMP280;31510;48.122;11.576;2023-02-01T10:28:11;96074.88;;;5.58
40047;BMP280;31510;48.122;11.576;2023-02-01T10:30:44;96079.03;;;5.59
40047;BMP280;31510;48.122;11.576;2023-02-01T10:35:44;96074.47;;;5.59
40047;BMP280;31510;48.122;11.576;2023-02-01T10:38:17;96062.81;;;5.57
40047;BMP280;31510;48.122;11.576;2023-02-01T10:40:45;96056.75;;;5.56
40047;BMP280;31510;48.122;11.576;2023-02-01T10:43:11;96074.88;;;5.58
40047;BMP280;31510;48.122;11.576;2023-02-01T10:45:37;96049.53;;;5.60
40047;BMP280;31510;48.122;11.576;2023-02-01T10:48:05;96067.66;;;5.62
40047;BMP280;31510;48.122;11.576;2023-02-01T10:50:51;96066.84;;;5.65
40047;BMP280;31510;48.122;11.576;2023-02-01T10:53:24;96076.28;;;5.66
40047;BMP280;31510;48.122;11.576;2023-02-01T10:55:53;96080.47;;;5.63
40047;BMP280;31510;48.122;11.576;2023-02-01T10:58:47;96068.00;;;5.64
40047;BMP280;31510;48.122;11.576;2023-02-01T11:01:20;96061.16;;;5.66
40047;BMP280;31510;48.122;11.576;2023-02-01T11:03:55;96074.81;;;5.61
40047;BMP280;31510;48.122;11.576;2023-02-01T11:06:36;96084.34;;;5.55
40047;BMP280;31510;48.122;11.576;2023-02-01T11:11:52;96079.84;;;5.53
40047;BMP280;31510;48.122;11.576;2023-02-01T11:19:38;96073.44;;;5.54
40047;BMP280;31510;48.122;11.576;2023-02-01T11:22:03;96079.06;;;5.55
40047;BMP280;31510;48.122;11.576;2023-02-01T11:24:35;96085.81;;;5.60
40047;BMP280;31510;48.122;11.576;2023-02-01T11:27:05;96074.81;;;5.61
40047;BMP280;31510;48.122;11.576;2023-02-01T11:29:43;96091.88;;;5.60
40047;BMP280;31510;48.122;11.576;2023-02-01T11:32:12;96078.63;;;5.60
40047;BMP280;31510;48.122;11.576;2023-02-01T11:34:43;96097.50;;;5.62
40047;BMP280;31510;48.122;11.576;2023-02-01T11:37:27;96085.44;;;5.58
40047;BMP280;31510;48.122;11.576;2023-02-01T11:42:59;96083.28;;;5.53
40047;BMP280;31510;48.122;11.576;2023-02-01T11:45:30;96087.09;;;5.49
40047;BMP280;31510;48.122;11.576;2023-02-01T11:47:57;96093.13;;;5.49
40047;BMP280;31510;48.122;11.576;2023-02-01T11:55:59;96077.31;;;5.42
40047;BMP280;31510;48.122;11.576;2023-02-01T11:58:50;96078.50;;;5.41
40047;BMP280;31510;48.122;11.576;2023-02-01T12:04:17;96061.81;;;5.44
40047;BMP280;31510;48.122;11.576;2023-02-01T12:06:55;96065.56;;;5.47
40047;BMP280;31510;48.122;11.576;2023-02-01T12:14:59;96057.75;;;5.36
40047;BMP280;31510;48.122;11.576;2023-02-01T12:18:08;96045.66;;;5.35
40047;BMP280;31510;48.122;11.576;2023-02-01T12:29:01;96049.41;;;5.41
40047;BMP280;31510;48.122;11.576;2023-02-01T12:31:54;96050.19;;;5.38
40047;BMP280;31510;48.122;11.576;2023-02-01T12:38:31;96050.34;;;5.24
40047;BMP280;31510;48.122;11.576;2023-02-01T12:43:18;96050.34;;;5.24
40047;BMP280;31510;48.122;11.576;2023-02-01T12:45:56;96051.47;;;5.27
40047;BMP280;31510;48.122;11.576;2023-02-01T12:48:46;96035.22;;;5.25
40047;BMP280;31510;48.122;11.576;2023-02-01T12:51:16;96036.06;;;5.18
40047;BMP280;31510;48.122;11.576;2023-02-01T12:56:36;96029.25;;;5.17
40047;BMP280;31510;48.122;11.576;2023-02-01T12:59:16;96024.38;;;5.16
40047;BMP280;31510;48.122;11.576;2023-02-01T13:01:48;96014.91;;;5.18
40047;BMP280;31510;48.122;11.576;2023-02-01T13:04:23;96012.97;;;5.22
40047;BMP280;31510;48.122;11.576;2023-02-01T13:07:10;96015.22;;;5.24
40047;BMP280;31510;48.122;11.576;2023-02-01T13:09:43;95997.06;;;5.26
40047;BMP280;31510;48.122;11.576;2023-02-01T13:12:14;95995.50;;;5.28
40047;BMP280;31510;48.122;11.576;2023-02-01T13:14:46;95999.28;;;5.31
40047;BMP280;31510;48.122;11.576;2023-02-01T13:17:19;95991.31;;;5.34
40047;BMP280;31510;48.122;11.576;2023-02-01T13:19:56;96004.88;;;5.36
40047;BMP280;31510;48.122;11.576;2023-02-01T13:22:33;96013.91;;;5.39
40047;BMP280;31510;48.122;11.576;2023-02-01T13:27:39;95988.22;;;5.39
40047;BMP280;31510;48.122;11.576;2023-02-01T13:35:27;95988.66;;;5.34
40047;BMP280;31510;48.122;11.576;2023-02-01T13:38:07;95991.31;;;5.34
40047;BMP280;31510;48.122;11.576;2023-02-01T13:40:50;95989.41;;;5.35
40047;BMP280;31510;48.122;11.576;2023-02-01T13:43:23;95989.75;;;5.37
40047;BMP280;31510;48.122;11.576;2023-02-01T13:45:53;95988.63;;;5.38
40047;BMP280;31510;48.122;11.576;2023-02-01T13:48:23;95995.72;;;5.41
40047;BMP280;31510;48.122;11.576;2023-02-01T13:50:55;96000.28;;;5.40
40047;BMP280;31510;48.122;11.576;2023-02-01T13:53:29;95992.75;;;5.39
40047;BMP280;31510;48.122;11.576;2023-02-01T13:56:00;96001.88;;;5.34
40047;BMP280;31510;48.122;11.576;2023-02-01T13:58:40;95994.69;;;5.35
40047;BMP280;31510;48.122;11.576;2023-02-01T14:03:56;95979.94;;;5.37
40047;BMP280;31510;48.122;11.576;2023-02-01T14:14:52;96003.81;;;5.30
40047;BMP280;31510;48.122;11.576;2023-02-01T14:19:26;96001.91;;;5.31
40047;BMP280;31510;48.122;11.576;2023-02-01T14:21:54;96000.03;;;5.31
40047;BMP280;31510;48.122;11.576;2023-02-01T14:24:32;96000.75;;;5.32
40047;BMP280;31510;48.122;11.576;2023-02-01T14:27:00;96004.56;;;5.31
40047;BMP280;31510;48.122;11.576;2023-02-01T14:29:32;96012.88;;;5.29
40047;BMP280;31510;48.122;11.576;2023-02-01T14:34:33;96007.69;;;5.22
40047;BMP280;31510;48.122;11.576;2023-02-01T14:37:07;95992.91;;;5.25
40047;BMP280;31510;48.122;11.576;2023-02-01T14:39:46;96013.31;;;5.24
40047;BMP280;31510;48.122;11.576;2023-02-01T14:47:54;96025.09;;;5.20
40047;BMP280;31510;48.122;11.576;2023-02-01T14:50:29;96005.47;;;5.17
40047;BMP280;31510;48.122;11.576;2023-02-01T14:55:50;96007.38;;;5.17
40047;BMP280;31510;48.122;11.576;2023-02-01T15:00:55;96008.06;;;5.21
40047;BMP280;31510;48.122;11.576;2023-02-01T15:08:58;96010.78;;;5.14
40047;BMP280;31510;48.122;11.576;2023-02-01T15:11:24;96018.34;;;5.15
40047;BMP280;31510;48.122;11.576;2023-02-01T15:13:51;96008.16;;;5.14
40047;BMP280;31510;48.122;11.576;2023-02-01T15:16:20;96011.56;;;5.15
40047;BMP280;31510;48.122;11.576;2023-02-01T15:18:47;96020.97;;;5.15
40047;BMP280;31510;48.122;11.576;2023-02-01T15:21:21;96024.00;;;5.14
40047;BMP280;31510;48.122;11.576;2023-02-01T15:23:47;96014.59;;;5.13
40047;BMP280;31510;48.122;11.576;2023-02-01T15:26:31;96030.06;;;5.15
40047;BMP280;31510;48.122;11.576;2023-02-01T15:28:57;96036.84;;;5.15
40047;BMP280;31510;48.122;11.576;2023-02-01T15:31:47;96045.50;;;5.16
40047;BMP280;31510;48.122;11.576;2023-02-01T15:34:13;96029.03;;;5.05
40047;BMP280;31510;48.122;11.576;2023-02-01T15:36:40;96028.75;;;4.96
40047;BMP280;31510;48.122;11.576;2023-02-01T15:41:54;96035.66;;;4.87
40047;BMP280;31510;48.122;11.576;2023-02-01T15:46:52;96035.41;;;4.75
40047;BMP280;31510;48.122;11.576;2023-02-01T15:49:23;96054.63;;;4.75
40047;BMP280;31510;48.122;11.576;2023-02-01T15:51:50;96047.09;;;4.74
40047;BMP280;31510;48.122;11.576;2023-02-01T15:54:18;96044.84;;;4.72
40047;BMP280;31510;48.122;11.576;2023-02-01T15:56:50;96049.75;;;4.70
40047;BMP280;31510;48.122;11.576;2023-02-01T15:59:20;96059.25;;;4.68
40047;BMP280;31510;48.122;11.576;2023-02-01T16:01:47;96056.94;;;4.70
40047;BMP280;31510;48.122;11.576;2023-02-01T16:04:21;96053.19;;;4.71
40047;BMP280;31510;48.122;11.576;2023-02-01T16:06:54;96050.16;;;4.69
40047;BMP280;31510;48.122;11.576;2023-02-01T16:09:25;96053.97;;;4.64
40047;BMP280;31510;48.122;11.576;2023-02-01T16:12:01;96049.06;;;4.66
40047;BMP280;31510;48.122;11.576;2023-02-01T16:14:26;96050.97;;;4.66
40047;BMP280;31510;48.122;11.576;2023-02-01T16:16:54;96060.75;;;4.65
40047;BMP280;31510;48.122;11.576;2023-02-01T16:19:20;96061.53;;;4.66
40047;BMP280;31510;48.122;11.576;2023-02-01T16:21:46;96059.25;;;4.64
40047;BMP280;31510;48.122;11.576;2023-02-01T16:24:11;96058.53;;;4.64
40047;BMP280;31510;48.122;11.576;2023-02-01T16:26:37;96073.56;;;4.67
40047;BMP280;31510;48.122;11.576;2023-02-01T16:29:03;96083.41;;;4.66
40047;BMP280;31510;48.122;11.576;2023-02-01T16:31:33;96071.72;;;4.64
40047;BMP280;31510;48.122;11.576;2023-02-01T16:33:59;96089.44;;;4.63
40047;BMP280;31510;48.122;11.576;2023-02-01T16:36:25;96086.81;;;4.63
40047;BMP280;31510;48.122;11.576;2023-02-01T16:38:52;96088.72;;;4.63
40047;BMP280;31510;48.122;11.576;2023-02-01T16:41:21;96080.41;;;4.64
40047;BMP280;31510;48.122;11.576;2023-02-01T16:43:49;96084.16;;;4.63